Time;durP1;ratioP1;P1;durP2;ratioP2;P2;SDS_P1;SDS_P2;PMS_P1;PMS_P2;Temp;Humidity;BMP_temperature;BMP_pressure;BME280_temperature;BME280_humidity;BME280_pressure;Samples;Min_cycle;Max_cycle;Signal;HPM_P1;HPM_P2
2021/11/16 00:01:36;;;;;;;;;10.25;8.50;;;;;22.14;40.95;102335.84;4969140;28;45484;-67
2021/11/16 00:04:02;;;;;;;;;10.25;9.25;;;;;22.11;40.81;102335.28;4972750;28;45493;-68
2021/11/16 00:06:28;;;;;;;;;8.25;7.75;;;;;22.15;41.51;102349.91;4973136;28;45265;-67
2021/11/16 00:08:53;;;;;;;;;8.00;7.50;;;;;22.13;41.39;102347.41;4974419;28;45300;-68
2021/11/16 00:11:18;;;;;;;;;10.00;10.00;;;;;22.10;41.25;102339.75;4972681;28;45327;-68
2021/11/16 00:13:45;;;;;;;;;10.50;10.50;;;;;22.10;41.02;102334.44;4971150;28;45375;-67
2021/11/16 00:16:10;;;;;;;;;15.25;12.00;;;;;22.11;40.86;102335.28;4972571;28;46215;-68
2021/11/16 00:18:36;;;;;;;;;9.00;8.50;;;;;22.13;41.04;102333.31;4972696;28;45400;-68
2021/11/16 00:21:03;;;;;;;;;8.50;8.50;;;;;22.10;41.03;102323.00;4973944;28;45445;-68
2021/11/16 00:23:36;;;;;;;;;11.25;10.00;;;;;22.10;40.64;102320.34;4972981;28;45454;-68
2021/11/16 00:26:05;;;;;;;;;10.25;10.25;;;;;22.10;40.72;102325.66;4971998;28;46378;-68
2021/11/16 00:28:31;;;;;;;;;11.75;9.00;;;;;22.11;41.07;102322.03;4971027;28;45652;-67
2021/11/16 00:30:57;;;;;;;;;9.50;9.00;;;;;22.12;40.79;102319.22;4972670;28;45541;-67
2021/11/16 00:33:23;;;;;;;;;11.50;9.50;;;;;22.06;41.08;102311.88;4972642;28;45611;-68
2021/11/16 00:35:49;;;;;;;;;8.00;8.00;;;;;22.07;40.72;102310.88;4973702;28;46605;-67
2021/11/16 00:38:17;;;;;;;;;11.00;10.50;;;;;22.11;40.85;102312.28;4971202;28;45321;-67
2021/11/16 00:40:43;;;;;;;;;8.25;8.25;;;;;22.10;41.18;102307.94;4990834;28;45526;-68
2021/11/16 00:43:09;;;;;;;;;12.25;11.00;;;;;22.11;40.96;102311.44;4972431;28;45801;-67
2021/11/16 00:45:41;;;;;;;;;12.00;10.25;;;;;22.11;40.92;102311.44;4971061;28;47318;-67
2021/11/16 00:48:08;;;;;;;;;10.00;8.75;;;;;22.04;41.16;102303.25;4973478;28;45344;-67
2021/11/16 00:50:37;;;;;;;;;9.50;9.50;;;;;22.08;41.02;102309.91;4973565;28;45379;-68
2021/11/16 00:53:03;;;;;;;;;9.50;9.50;;;;;22.10;40.75;102315.88;4970308;28;45570;-67
2021/11/16 00:55:29;;;;;;;;;8.50;8.50;;;;;22.09;41.13;102316.88;4971974;28;45265;-68
2021/11/16 00:57:54;;;;;;;;;9.75;8.75;;;;;22.10;40.86;102305.28;4972112;28;45478;-68
2021/11/16 01:00:20;;;;;;;;;10.25;10.25;;;;;21.92;40.76;102281.34;4972360;28;45684;-67
2021/11/16 01:02:45;;;;;;;;;12.50;9.75;;;;;22.10;41.11;102305.28;4974245;28;45540;-68
2021/11/16 01:05:12;;;;;;;;;9.50;9.00;;;;;22.10;40.85;102309.75;4971908;28;46957;-67
2021/11/16 01:07:40;;;;;;;;;10.00;9.25;;;;;22.07;40.73;102306.41;4970327;28;45438;-67
2021/11/16 01:10:07;;;;;;;;;9.00;9.00;;;;;22.09;40.51;102310.75;4971988;28;45492;-67
2021/11/16 01:12:32;;;;;;;;;10.75;8.00;;;;;22.05;40.97;102295.13;4972057;27;45360;-67
2021/11/16 01:14:58;;;;;;;;;10.25;10.25;;;;;22.09;40.98;102311.59;4973700;28;45860;-67
2021/11/16 01:17:24;;;;;;;;;12.25;10.00;;;;;22.06;41.05;102309.22;4972389;28;46790;-68
2021/11/16 01:19:51;;;;;;;;;9.00;9.00;;;;;22.05;40.47;102304.88;4971835;28;45653;-67
2021/11/16 01:22:16;;;;;;;;;12.50;10.00;;;;;22.06;40.93;102295.97;4971357;28;45397;-67
2021/11/16 01:24:43;;;;;;;;;10.50;10.00;;;;;22.07;40.75;102301.13;4971698;28;46150;-67
2021/11/16 01:27:11;;;;;;;;;11.75;11.25;;;;;22.07;40.87;102298.47;4972504;28;45530;-68
2021/11/16 01:29:38;;;;;;;;;11.25;10.25;;;;;22.06;40.53;102291.50;4973506;28;45479;-68
2021/11/16 01:32:06;;;;;;;;;12.75;10.25;;;;;22.01;40.99;102290.28;4970173;28;45560;-68
2021/11/16 01:34:33;;;;;;;;;9.00;8.50;;;;;22.05;40.83;102289.81;4971370;28;47405;-68
2021/11/16 01:36:59;;;;;;;;;11.25;9.25;;;;;22.05;40.46;102287.19;4971342;28;45447;-67
2021/11/16 01:39:25;;;;;;;;;9.25;8.25;;;;;22.04;40.52;102289.97;4971935;28;45371;-68
2021/11/16 01:41:52;;;;;;;;;9.75;9.00;;;;;22.04;41.04;102289.97;4973698;28;45360;-67
2021/11/16 01:44:17;;;;;;;;;10.00;9.00;;;;;22.04;40.37;102287.34;4971579;28;45444;-68
2021/11/16 01:46:43;;;;;;;;;10.75;10.75;;;;;22.04;40.61;102285.50;4971646;28;45565;-68
2021/11/16 01:49:09;;;;;;;;;11.75;10.25;;;;;22.06;40.74;102290.66;4969903;28;45502;-67
2021/11/16 01:51:36;;;;;;;;;11.25;11.25;;;;;22.06;40.90;102291.50;4971405;28;45530;-68
2021/11/16 01:54:03;;;;;;;;;12.25;11.75;;;;;22.05;40.70;102294.28;4972441;28;46283;-68
2021/11/16 01:56:32;;;;;;;;;10.75;9.75;;;;;22.03;40.97;102286.50;4972047;28;45277;-68
2021/11/16 01:58:59;;;;;;;;;9.50;8.50;;;;;22.05;41.21;102289.81;4971425;28;45261;-67
2021/11/16 02:01:27;;;;;;;;;10.75;9.25;;;;;22.06;40.76;102293.31;4971433;28;45525;-67
2021/11/16 02:03:52;;;;;;;;;11.00;11.00;;;;;22.06;40.29;102295.97;4971218;28;46819;-67
2021/11/16 02:06:22;;;;;;;;;9.00;9.00;;;;;22.04;40.46;102285.50;4969609;28;45429;-68
2021/11/16 02:08:49;;;;;;;;;11.00;10.75;;;;;22.04;40.85;102280.19;4973608;28;45460;-68
2021/11/16 02:11:15;;;;;;;;;10.75;7.25;;;;;22.05;40.28;102278.38;4969608;28;45394;-67
2021/11/16 02:13:40;;;;;;;;;9.75;9.75;;;;;22.05;40.84;102278.38;4970910;28;47139;-68
2021/11/16 02:16:06;;;;;;;;;8.25;7.50;;;;;21.88;40.32;102256.13;4971042;28;45277;-68
2021/11/16 02:18:31;;;;;;;;;9.00;9.00;;;;;22.06;40.72;102280.91;4971257;28;45588;-68
2021/11/16 02:20:56;;;;;;;;;13.25;11.25;;;;;22.00;40.24;102273.53;4972866;28;45294;-68
2021/11/16 02:23:22;;;;;;;;;9.75;9.75;;;;;22.02;40.62;102273.38;4970724;28;45594;-67
2021/11/16 02:25:49;;;;;;;;;12.50;12.50;;;;;22.02;40.70;102282.16;4967876;28;45569;-68
2021/11/16 02:28:17;;;;;;;;;10.00;10.00;;;;;22.06;40.75;102275.59;4966689;28;45554;-67
2021/11/16 02:30:42;;;;;;;;;10.50;10.25;;;;;22.06;40.33;102272.97;4960590;28;45353;-68
2021/11/16 02:33:07;;;;;;;;;12.75;9.50;;;;;22.06;40.87;102278.25;4968998;28;45555;-67
2021/11/16 02:35:33;;;;;;;;;12.00;12.00;;;;;22.01;40.37;102269.91;4999363;28;45303;-68
2021/11/16 02:37:59;;;;;;;;;9.50;8.50;;;;;22.00;40.25;102275.34;4966621;28;45367;-68
2021/11/16 02:40:27;;;;;;;;;10.00;10.00;;;;;22.05;40.72;102279.22;4966799;28;45492;-67
2021/11/16 02:42:53;;;;;;;;;9.00;9.00;;;;;22.03;40.79;102272.41;4967714;28;46630;-68
2021/11/16 02:45:19;;;;;;;;;11.00;11.00;;;;;22.04;40.23;102272.25;4969923;28;45351;-68
2021/11/16 02:47:46;;;;;;;;;11.50;8.25;;;;;22.00;40.64;102268.22;4968353;28;45408;-67
2021/11/16 02:50:12;;;;;;;;;11.50;11.50;;;;;22.03;40.40;102267.09;4965065;28;45458;-68
2021/11/16 02:52:38;;;;;;;;;15.50;13.25;;;;;22.00;40.48;102262.94;4969034;28;45484;-68
2021/11/16 02:55:06;;;;;;;;;9.00;9.00;;;;;22.04;40.58;102263.47;4954182;28;45462;-67
2021/11/16 02:57:32;;;;;;;;;10.75;10.00;;;;;22.02;40.66;102263.59;4970497;28;45481;-67
2021/11/16 02:59:57;;;;;;;;;12.25;10.75;;;;;21.98;40.20;102259.59;4969884;28;45409;-68
2021/11/16 03:02:23;;;;;;;;;12.50;11.00;;;;;22.02;40.39;102254.81;4969152;28;45779;-67
2021/11/16 03:04:48;;;;;;;;;12.00;12.00;;;;;22.03;40.23;102267.94;4967889;28;45349;-68
2021/11/16 03:07:29;;;;;;;;;11.00;9.00;;;;;22.03;40.22;102261.81;4973644;28;45347;-67
2021/11/16 03:09:55;;;;;;;;;10.00;9.25;;;;;22.01;40.79;102263.78;4971524;28;45560;-68
2021/11/16 03:12:20;;;;;;;;;11.00;9.00;;;;;22.01;40.48;102261.13;4972859;28;45877;-68
2021/11/16 03:14:45;;;;;;;;;12.75;10.75;;;;;22.02;40.47;102265.41;4975499;28;45371;-68
2021/11/16 03:17:11;;;;;;;;;11.50;11.50;;;;;22.01;40.44;102267.25;4973076;28;45446;-68
2021/11/16 03:19:37;;;;;;;;;11.50;10.00;;;;;22.01;40.47;102269.06;4973319;28;45335;-67
2021/11/16 03:22:03;;;;;;;;;12.00;9.00;;;;;22.00;40.75;102262.94;4973027;28;46613;-68
2021/11/16 03:24:33;;;;;;;;;12.00;12.00;;;;;22.01;40.76;102264.59;4973505;28;45477;-68
2021/11/16 03:27:03;;;;;;;;;12.25;11.00;;;;;22.02;40.29;102268.91;4971542;28;45449;-68
2021/11/16 03:29:31;;;;;;;;;11.75;10.00;;;;;22.01;40.38;102261.13;4974167;28;45549;-67
2021/11/16 03:32:11;;;;;;;;;11.00;11.00;;;;;22.03;40.13;102267.94;4972444;28;46981;-68
2021/11/16 03:34:37;;;;;;;;;13.50;13.00;;;;;22.02;40.31;102262.78;4972774;28;45390;-67
2021/11/16 03:37:04;;;;;;;;;10.75;10.75;;;;;22.03;40.63;102264.44;4971646;28;45419;-67
2021/11/16 03:39:30;;;;;;;;;13.00;13.00;;;;;22.04;40.71;102266.13;4973409;28;45384;-68
2021/11/16 03:41:56;;;;;;;;;13.25;11.25;;;;;22.02;40.63;102260.97;4975052;28;47128;-67
2021/11/16 03:44:22;;;;;;;;;12.50;12.00;;;;;22.02;40.28;102263.59;4971493;28;45375;-67
2021/11/16 03:46:47;;;;;;;;;12.75;11.50;;;;;22.04;40.43;102271.44;4972688;28;45360;-68
2021/11/16 03:49:14;;;;;;;;;10.50;10.50;;;;;22.04;40.55;102268.78;4972983;28;45448;-68
2021/11/16 03:51:43;;;;;;;;;11.00;11.00;;;;;22.03;40.09;102267.94;4973092;28;45503;-68
2021/11/16 03:54:09;;;;;;;;;12.75;12.00;;;;;22.04;40.51;102268.78;4973491;28;45595;-67
2021/11/16 03:56:34;;;;;;;;;11.00;11.00;;;;;22.03;40.05;102260.00;4974247;28;45394;-68
2021/11/16 03:59:00;;;;;;;;;12.25;11.50;;;;;21.99;40.01;102263.91;4973005;28;45574;-68
2021/11/16 04:01:25;;;;;;;;;11.75;11.75;;;;;22.02;40.45;102260.97;4972394;28;46409;-68
2021/11/16 04:03:53;;;;;;;;;12.00;12.00;;;;;22.03;40.32;102260.00;4973033;28;45582;-67
2021/11/16 04:06:21;;;;;;;;;12.25;9.75;;;;;22.02;40.21;102260.97;4971123;28;45505;-67
2021/11/16 04:08:46;;;;;;;;;12.50;12.00;;;;;22.02;40.36;102260.13;4969438;28;45392;-68
2021/11/16 04:11:12;;;;;;;;;15.25;13.25;;;;;22.00;40.62;102259.44;4967156;28;45931;-67
2021/11/16 04:13:38;;;;;;;;;12.50;11.50;;;;;22.01;40.36;102259.31;4964993;28;45446;-67
2021/11/16 04:16:04;;;;;;;;;14.00;12.25;;;;;22.02;40.69;102260.97;4957358;28;45447;-68
2021/11/16 04:18:30;;;;;;;;;13.75;11.75;;;;;22.01;40.20;102255.81;4972949;28;45533;-68
2021/11/16 04:20:57;;;;;;;;;15.00;10.25;;;;;22.02;40.64;102253.00;4970289;28;45365;-67
2021/11/16 04:23:24;;;;;;;;;12.75;11.75;;;;;22.01;40.05;102253.16;4966849;28;45392;-68
2021/11/16 04:25:51;;;;;;;;;12.75;11.25;;;;;21.98;40.02;102254.28;4968411;28;45521;-67
2021/11/16 04:28:17;;;;;;;;;13.75;12.75;;;;;22.02;40.39;102249.50;4967212;28;45476;-68
2021/11/16 04:30:44;;;;;;;;;10.00;8.00;;;;;21.96;40.43;102243.00;4970507;28;49847;-68
2021/11/16 04:33:11;;;;;;;;;8.00;6.50;;;;;21.96;39.95;102248.31;4970874;28;45323;-67
2021/11/16 04:35:36;;;;;;;;;13.00;11.25;;;;;22.01;40.46;102256.66;4969912;28;45545;-67
2021/11/16 04:38:04;;;;;;;;;14.00;12.75;;;;;22.01;40.56;102253.16;4970612;28;45595;-67
2021/11/16 04:40:36;;;;;;;;;14.75;13.00;;;;;21.99;40.55;102245.34;4968034;28;45465;-67
2021/11/16 04:43:08;;;;;;;;;13.00;12.75;;;;;22.02;40.43;102257.47;4968062;28;45430;-67
2021/11/16 04:45:35;;;;;;;;;11.75;11.75;;;;;21.96;40.05;102241.16;4970306;28;45406;-67
2021/11/16 04:48:29;;;;;;;;;11.75;10.50;;;;;21.99;40.02;102241.88;4970572;28;45245;-68
2021/11/16 05:03:59;;;;;;;;;12.00;12.00;;;;;21.98;40.15;102251.63;5057557;28;45439;-68
2021/11/16 05:06:25;;;;;;;;;14.75;10.75;;;;;22.00;40.16;102251.47;5054118;28;45507;-68
2021/11/16 05:08:50;;;;;;;;;12.25;12.25;;;;;22.01;40.06;102254.00;5058779;28;45447;-67
2021/11/16 05:11:17;;;;;;;;;11.50;9.50;;;;;21.99;40.07;102240.03;5057929;28;46185;-67
2021/11/16 05:13:43;;;;;;;;;12.50;12.50;;;;;21.98;40.27;102245.50;5057529;28;45451;-68
2021/11/16 05:16:11;;;;;;;;;15.25;11.25;;;;;22.00;40.29;102247.03;5057967;28;45475;-67
2021/11/16 05:18:38;;;;;;;;;13.50;13.00;;;;;22.01;40.03;102242.56;5054593;28;45548;-68
2021/11/16 05:21:03;;;;;;;;;11.50;11.00;;;;;22.02;40.60;102238.91;5056913;28;49760;-68
2021/11/16 05:23:28;;;;;;;;;13.00;12.00;;;;;22.00;40.00;102247.03;5057358;28;45468;-67
2021/11/16 05:25:55;;;;;;;;;10.75;10.00;;;;;22.03;40.04;102251.19;5057767;28;45318;-68
2021/11/16 05:28:21;;;;;;;;;11.00;11.00;;;;;22.03;39.96;102256.50;5057531;28;45465;-67
2021/11/16 05:30:48;;;;;;;;;10.00;10.00;;;;;22.03;39.99;102259.16;5055752;28;45605;-67
2021/11/16 05:33:14;;;;;;;;;13.25;11.00;;;;;22.01;40.15;102255.81;5054993;28;45519;-67
2021/11/16 05:35:39;;;;;;;;;13.50;12.25;;;;;22.00;40.15;102262.09;5058341;28;45501;-67
2021/11/16 05:38:05;;;;;;;;;12.00;10.00;;;;;22.00;40.15;102264.72;4998456;28;45546;-67
2021/11/16 05:40:31;;;;;;;;;13.25;10.50;;;;;22.01;40.00;102264.59;4970228;28;47243;-67
2021/11/16 05:42:57;;;;;;;;;13.00;13.00;;;;;21.98;40.37;102262.25;4971433;28;45457;-68
2021/11/16 05:45:23;;;;;;;;;13.50;13.00;;;;;22.00;39.90;102254.97;4971752;28;45513;-67
2021/11/16 05:47:52;;;;;;;;;11.50;11.25;;;;;22.00;39.99;102262.94;4973682;28;45430;-68
2021/11/16 05:50:18;;;;;;;;;13.75;10.75;;;;;21.99;39.88;102257.78;4969751;28;46166;-68
2021/11/16 05:52:44;;;;;;;;;13.00;12.25;;;;;21.98;40.09;102248.16;4965527;28;45324;-67
2021/11/16 05:55:10;;;;;;;;;12.00;12.00;;;;;22.00;40.37;102256.78;4969282;28;46085;-68
2021/11/16 05:57:36;;;;;;;;;10.50;10.50;;;;;21.99;40.32;102257.78;4954755;28;45296;-67
2021/11/16 06:00:06;;;;;;;;;12.00;11.75;;;;;21.96;40.01;102243.81;4968274;28;46154;-68
2021/11/16 06:02:31;;;;;;;;;10.75;10.75;;;;;21.98;40.50;102249.00;4967951;28;45338;-68
2021/11/16 06:04:57;;;;;;;;;15.00;12.00;;;;;21.98;40.23;102249.00;4965470;28;45295;-68
2021/11/16 06:07:22;;;;;;;;;12.00;12.00;;;;;21.99;39.95;102250.63;4967287;28;45319;-67
2021/11/16 06:09:48;;;;;;;;;11.50;11.50;;;;;21.92;39.92;102229.19;4969184;28;45341;-68
2021/11/16 06:12:13;;;;;;;;;11.50;10.25;;;;;21.99;40.26;102241.88;4969455;28;45243;-68
2021/11/16 06:14:39;;;;;;;;;12.00;11.00;;;;;22.00;40.38;102247.03;4971084;28;45280;-67
2021/11/16 06:17:05;;;;;;;;;12.00;11.50;;;;;21.99;39.68;102244.53;4967220;28;45945;-68
2021/11/16 06:19:35;;;;;;;;;13.25;12.00;;;;;22.00;40.53;102239.06;4965229;28;45372;-67
2021/11/16 06:22:03;;;;;;;;;12.25;11.75;;;;;22.00;40.24;102244.38;4966996;28;45455;-68
2021/11/16 06:24:28;;;;;;;;;14.25;12.25;;;;;21.95;40.21;102236.03;4955880;28;48064;-67
2021/11/16 06:26:54;;;;;;;;;12.00;10.50;;;;;21.98;40.03;102243.69;4968657;28;45511;-67
2021/11/16 06:29:19;;;;;;;;;12.50;11.00;;;;;21.99;40.53;102241.88;4966758;28;45363;-67
2021/11/16 06:31:44;;;;;;;;;12.75;12.50;;;;;21.96;39.62;102243.81;4971204;28;45430;-67
2021/11/16 06:34:11;;;;;;;;;12.50;10.75;;;;;21.96;39.94;102254.41;4971097;28;45387;-67
2021/11/16 06:36:40;;;;;;;;;14.00;12.50;;;;;21.99;40.23;102250.63;4969574;28;45375;-66
2021/11/16 06:39:12;;;;;;;;;11.00;11.00;;;;;21.97;40.40;102244.66;4973953;28;45295;-66
2021/11/16 06:41:39;;;;;;;;;15.00;12.00;;;;;21.97;40.55;102244.66;4973965;28;45492;-66
2021/11/16 06:44:07;;;;;;;;;11.50;11.50;;;;;22.00;39.85;102248.84;4973830;28;45548;-67
2021/11/16 06:46:33;;;;;;;;;12.25;11.00;;;;;22.00;40.48;102247.03;4973781;28;45603;-66
2021/11/16 06:49:00;;;;;;;;;13.25;10.50;;;;;22.00;40.25;102243.53;4972978;28;46800;-69
2021/11/16 06:51:26;;;;;;;;;14.50;11.75;;;;;22.00;40.95;102244.38;4973471;28;45550;-67
2021/11/16 06:53:51;;;;;;;;;12.00;11.75;;;;;21.99;40.61;102240.03;4975113;28;45346;-65
2021/11/16 06:56:17;;;;;;;;;11.75;10.50;;;;;22.03;40.39;102249.38;4973283;28;45335;-65
2021/11/16 06:58:42;;;;;;;;;13.50;12.50;;;;;22.03;40.40;102244.09;4973727;28;45358;-66
2021/11/16 07:01:08;;;;;;;;;11.25;11.25;;;;;22.02;40.53;102241.56;4973454;28;45486;-65
2021/11/16 07:03:34;;;;;;;;;11.00;10.25;;;;;22.05;40.29;102235.97;4973522;28;45341;-65
2021/11/16 07:06:01;;;;;;;;;15.50;10.75;;;;;22.06;40.57;102242.97;4973162;28;45435;-65
2021/11/16 07:08:41;;;;;;;;;12.75;11.75;;;;;22.05;40.15;102238.63;4973049;28;45963;-65
2021/11/16 07:11:17;;;;;;;;;11.00;11.00;;;;;22.05;40.47;102236.81;4972826;28;45398;-65
2021/11/16 07:14:01;;;;;;;;;13.00;12.00;;;;;22.06;40.18;102243.81;4973079;28;45382;-67
2021/11/16 07:16:52;;;;;;;;;11.75;10.00;;;;;22.07;40.49;102247.25;4972984;28;45525;-65
2021/11/16 07:19:18;;;;;;;;;11.50;11.50;;;;;22.04;40.11;102237.78;4969420;28;45588;-65
2021/11/16 07:21:47;;;;;;;;;14.25;14.00;;;;;22.06;40.29;102238.50;4972001;28;45528;-65
2021/11/16 07:24:17;;;;;;;;;13.50;12.25;;;;;22.07;40.44;102237.50;4973203;28;45399;-65
2021/11/16 07:26:43;;;;;;;;;14.25;11.00;;;;;22.07;40.58;102245.44;4973658;28;45335;-65
2021/11/16 07:29:13;;;;;;;;;14.75;13.50;;;;;22.10;40.58;102240.84;4970585;28;45573;-64
2021/11/16 07:31:41;;;;;;;;;8.75;8.75;;;;;22.06;40.17;102241.16;4968611;28;45373;-65
2021/11/16 07:34:20;;;;;;;;;12.50;12.25;;;;;22.09;39.93;102250.63;4970811;28;45375;-65
2021/11/16 07:37:05;;;;;;;;;12.00;11.25;;;;;22.11;40.07;102247.81;4956762;28;45728;-65
2021/11/16 07:39:43;;;;;;;;;11.00;10.00;;;;;22.10;40.02;102249.63;4957431;28;45521;-65
2021/11/16 07:42:09;;;;;;;;;16.00;13.50;;;;;22.04;40.59;102244.94;4971520;28;45342;-65
2021/11/16 07:44:35;;;;;;;;;12.50;11.75;;;;;22.07;40.37;102244.63;4969975;28;45335;-65
2021/11/16 07:47:02;;;;;;;;;12.00;11.25;;;;;22.04;40.36;102239.63;4968248;28;45310;-65
2021/11/16 07:49:27;;;;;;;;;11.50;11.25;;;;;22.07;40.56;102247.25;4968697;28;47126;-65
2021/11/16 07:51:55;;;;;;;;;14.75;13.00;;;;;22.03;40.16;102252.03;4969832;28;45570;-65
2021/11/16 07:54:27;;;;;;;;;13.25;11.75;;;;;22.03;40.53;102249.38;4971883;28;45402;-64
2021/11/16 07:56:53;;;;;;;;;15.50;14.25;;;;;22.02;40.09;102242.41;4970664;28;45669;-65
2021/11/16 07:59:23;;;;;;;;;12.25;11.75;;;;;22.03;39.90;102253.84;4968298;28;46211;-64
2021/11/16 08:02:04;;;;;;;;;12.25;11.00;;;;;22.03;40.12;102257.34;4967082;28;45387;-65
2021/11/16 08:09:47;;;;;;;;;14.00;13.25;;;;;22.01;40.41;102245.22;4956177;28;45734;-65
2021/11/16 08:14:47;;;;;;;;;11.75;10.75;;;;;22.00;40.56;102241.72;4973254;28;45437;-65
2021/11/16 08:17:13;;;;;;;;;12.75;12.75;;;;;21.94;40.10;102242.28;4972864;28;45448;-65
2021/11/16 08:19:40;;;;;;;;;12.50;12.00;;;;;22.02;40.41;102255.66;4972015;28;47346;-65
2021/11/16 08:22:11;;;;;;;;;13.25;11.75;;;;;22.03;40.25;102251.19;4970982;28;45418;-66
2021/11/16 08:24:39;;;;;;;;;13.25;11.50;;;;;22.00;40.16;102254.13;4972654;28;45252;-68
2021/11/16 08:27:17;;;;;;;;;13.50;12.75;;;;;22.01;40.42;102251.34;4973946;28;45165;-65
2021/11/16 08:29:45;;;;;;;;;11.25;11.25;;;;;22.01;40.47;102247.88;4974303;28;46361;-65
2021/11/16 08:32:19;;;;;;;;;15.25;11.75;;;;;22.00;40.10;102249.69;4972337;28;45390;-65
2021/11/16 08:34:48;;;;;;;;;13.75;12.25;;;;;22.00;40.54;102247.03;4972251;28;45433;-65
2021/11/16 08:37:15;;;;;;;;;13.00;13.00;;;;;21.93;40.10;102233.53;4972026;28;45364;-65
2021/11/16 08:39:48;;;;;;;;;16.00;14.50;;;;;22.00;40.49;102240.88;4970951;28;46178;-65
2021/11/16 08:42:27;;;;;;;;;15.25;14.75;;;;;22.01;40.53;102247.88;4972492;28;45462;-65
2021/11/16 08:45:18;;;;;;;;;15.00;14.00;;;;;22.02;40.48;102245.06;4974053;28;45424;-65
2021/11/16 08:47:47;;;;;;;;;14.00;13.00;;;;;21.98;40.63;102229.59;4972837;28;45426;-65
2021/11/16 08:50:27;;;;;;;;;15.75;13.50;;;;;22.01;39.86;102234.63;4971651;28;47539;-64
2021/11/16 08:52:53;;;;;;;;;13.25;13.25;;;;;21.88;40.02;102213.75;4971978;28;45603;-65
2021/11/16 08:55:20;;;;;;;;;6.25;6.25;;;;;22.03;40.00;102237.94;4970633;28;45371;-65
2021/11/16 08:57:48;;;;;;;;;11.00;11.00;;;;;22.04;40.47;102234.34;4971025;28;45644;-65
2021/11/16 09:00:29;;;;;;;;;11.50;11.25;;;;;22.04;39.91;102229.03;4972230;28;46715;-65
2021/11/16 09:03:07;;;;;;;;;14.25;13.50;;;;;22.03;40.19;102230.00;4974021;28;45340;-65
2021/11/16 09:05:36;;;;;;;;;14.25;12.75;;;;;22.01;39.98;102229.31;4972746;28;45475;-64
2021/11/16 09:08:04;;;;;;;;;12.25;11.00;;;;;22.00;40.08;102222.34;4979537;28;45554;-65
2021/11/16 09:10:40;;;;;;;;;11.75;11.00;;;;;22.04;40.53;102231.69;4971837;28;45267;-65
2021/11/16 09:13:09;;;;;;;;;16.00;13.25;;;;;22.05;40.44;102225.38;4971880;28;45435;-65
2021/11/16 09:15:43;;;;;;;;;10.50;10.25;;;;;22.04;40.01;102229.84;4972024;28;45383;-65
2021/11/16 09:18:19;;;;;;;;;11.50;10.25;;;;;22.03;40.07;102225.53;4972509;28;45505;-65
2021/11/16 09:21:00;;;;;;;;;14.50;13.00;;;;;22.03;40.24;102225.53;4973067;28;45489;-65
2021/11/16 09:23:32;;;;;;;;;15.75;13.25;;;;;22.03;40.28;102222.88;4971017;28;45288;-65
2021/11/16 09:26:08;;;;;;;;;14.50;11.00;;;;;22.01;40.00;102211.59;4971611;28;45280;-65
2021/11/16 09:28:39;;;;;;;;;13.25;10.75;;;;;22.01;40.07;102216.91;4971599;28;45406;-64
2021/11/16 09:31:21;;;;;;;;;15.00;14.00;;;;;22.01;39.94;102221.38;4971428;28;46136;-64
2021/11/16 09:33:48;;;;;;;;;11.00;11.00;;;;;22.00;40.00;102217.88;4969879;28;45479;-65
2021/11/16 09:36:22;;;;;;;;;16.25;13.00;;;;;22.00;40.09;102215.22;4971951;28;45455;-65
2021/11/16 09:38:52;;;;;;;;;13.00;13.00;;;;;22.00;40.09;102217.03;4972790;28;45433;-65
2021/11/16 09:41:30;;;;;;;;;13.00;13.00;;;;;21.99;40.47;102216.19;4971200;28;46972;-64
2021/11/16 09:44:22;;;;;;;;;12.75;12.75;;;;;21.97;40.46;102218.16;4971318;28;45429;-65
2021/11/16 09:46:54;;;;;;;;;14.25;14.25;;;;;22.02;40.10;102220.38;4965868;28;45304;-65
2021/11/16 09:49:42;;;;;;;;;13.00;12.75;;;;;22.00;40.06;102217.88;4971013;28;45574;-65
2021/11/16 09:52:14;;;;;;;;;12.50;12.50;;;;;22.00;40.10;102219.69;4971244;28;47788;-65
2021/11/16 09:55:00;;;;;;;;;13.00;13.00;;;;;22.00;40.35;102222.34;4970063;28;45560;-64
2021/11/16 09:57:31;;;;;;;;;13.25;12.00;;;;;21.98;40.42;102219.84;4970739;28;45541;-65
2021/11/16 10:00:08;;;;;;;;;12.25;12.00;;;;;22.00;40.53;102222.34;4969294;28;45432;-65
2021/11/16 10:02:35;;;;;;;;;14.00;12.25;;;;;21.98;39.81;102226.94;4972316;28;45397;-64
2021/11/16 10:05:06;;;;;;;;;12.75;12.25;;;;;22.00;40.39;102227.63;4970934;28;45517;-66
2021/11/16 10:07:36;;;;;;;;;14.75;12.75;;;;;21.96;39.91;102224.47;4971207;28;45470;-64
2021/11/16 10:10:04;;;;;;;;;13.75;13.00;;;;;21.98;40.28;102229.59;4970861;28;45371;-65
2021/11/16 10:12:38;;;;;;;;;13.50;13.00;;;;;21.94;39.86;102221.94;4956254;28;46532;-65
2021/11/16 10:15:04;;;;;;;;;12.75;12.75;;;;;21.96;40.24;102222.63;4969270;28;45390;-65
2021/11/16 10:17:29;;;;;;;;;12.50;12.25;;;;;21.95;40.21;102220.97;4971544;28;45487;-65
2021/11/16 10:19:55;;;;;;;;;17.25;14.00;;;;;21.98;39.75;102224.31;4954794;28;45528;-65
2021/11/16 10:22:21;;;;;;;;;10.75;10.75;;;;;21.99;40.16;102218.03;4970888;28;45527;-65
2021/11/16 10:24:46;;;;;;;;;12.50;11.75;;;;;21.98;40.27;102219.00;4971058;28;45340;-65
2021/11/16 10:27:17;;;;;;;;;13.00;12.00;;;;;22.01;39.91;102218.72;4971836;28;45727;-65
2021/11/16 10:29:44;;;;;;;;;12.50;12.50;;;;;22.02;39.87;102225.66;4971425;28;46357;-65
2021/11/16 10:32:20;;;;;;;;;18.75;15.00;;;;;22.01;39.98;102227.50;4970259;28;46242;-65
2021/11/16 10:34:47;;;;;;;;;12.00;11.00;;;;;22.02;40.18;102220.38;4969345;28;45409;-65
2021/11/16 10:37:12;;;;;;;;;11.50;11.50;;;;;22.00;39.83;102222.34;4969626;27;45234;-64
2021/11/16 10:39:38;;;;;;;;;15.25;12.25;;;;;22.01;40.17;102221.38;4970980;28;45485;-65
2021/11/16 10:42:06;;;;;;;;;15.75;11.75;;;;;22.03;40.08;102219.41;4971982;28;46167;-64
2021/11/16 10:44:37;;;;;;;;;12.25;12.25;;;;;22.04;40.03;102218.44;4971645;28;45303;-64
2021/11/16 10:47:05;;;;;;;;;12.50;12.25;;;;;22.03;39.74;102211.44;4970436;28;45593;-65
2021/11/16 10:49:30;;;;;;;;;15.25;13.25;;;;;22.01;40.09;102211.59;4970683;28;45525;-64
2021/11/16 10:51:56;;;;;;;;;16.75;15.00;;;;;21.99;39.71;102208.25;4969122;28;46055;-65
2021/11/16 10:54:22;;;;;;;;;14.75;13.25;;;;;22.02;40.33;102213.25;4969207;28;45380;-65
2021/11/16 10:56:56;;;;;;;;;16.00;14.25;;;;;22.01;39.80;102203.66;4972943;28;45387;-64
2021/11/16 10:59:30;;;;;;;;;13.75;11.50;;;;;22.01;40.32;102200.16;4970554;28;45292;-65
2021/11/16 11:01:58;;;;;;;;;17.00;13.75;;;;;22.01;40.08;102205.47;4970052;28;45565;-65
2021/11/16 11:04:26;;;;;;;;;14.00;14.00;;;;;21.99;40.27;102200.28;4970334;28;45414;-64
2021/11/16 11:06:53;;;;;;;;;12.75;11.25;;;;;21.98;40.19;102193.34;4970594;28;45382;-65
2021/11/16 11:09:20;;;;;;;;;14.75;13.25;;;;;21.99;39.73;102196.84;4970374;28;45605;-65
2021/11/16 11:11:48;;;;;;;;;14.25;13.00;;;;;22.00;39.70;102190.53;4972321;28;46008;-65
2021/11/16 11:14:35;;;;;;;;;14.25;12.50;;;;;21.93;40.11;102180.53;4970151;28;45613;-65
2021/11/16 11:17:08;;;;;;;;;13.75;12.00;;;;;22.00;39.88;102185.22;4968577;28;45488;-65
2021/11/16 11:19:38;;;;;;;;;12.75;10.75;;;;;21.97;40.23;102170.47;4971534;27;45642;-65
2021/11/16 11:22:23;;;;;;;;;14.75;13.00;;;;;22.00;39.77;102179.94;4972271;28;46439;-65
2021/11/16 11:28:09;;;;;;;;;15.25;13.25;;;;;21.97;39.97;102170.47;4973650;28;45561;-65
2021/11/16 11:30:19;;;;;;;;;19.75;15.75;;;;;21.96;40.00;102158.22;4977005;28;45303;-65
2021/11/16 11:32:48;;;;;;;;;16.75;14.75;;;;;21.97;40.19;102154.56;4975418;28;45427;-65
2021/11/16 11:35:17;;;;;;;;;15.00;13.00;;;;;21.96;39.98;102153.72;4973205;28;45509;-65
2021/11/16 11:37:46;;;;;;;;;17.25;13.75;;;;;21.98;39.77;102150.09;4973387;28;45403;-64
2021/11/16 11:40:14;;;;;;;;;16.50;15.25;;;;;21.98;40.28;102155.41;4973401;28;45438;-65
2021/11/16 11:42:53;;;;;;;;;15.75;14.50;;;;;21.95;40.24;102136.16;4973103;28;45453;-65